ADDS METAR Data INFO
IDs: Format: Raw Decoded Include TAF

Data at: 0022 UTC 11 Dec 2017

KRUQ 110005Z AUTO 00000KT 10SM CLR 01/M04 A3013 RMK AO2 T00061045
KRUQ 102345Z AUTO 20004KT 10SM CLR 00/M04 A3013 RMK AO2 T00031043
KRUQ 102325Z AUTO 21004KT 10SM CLR 00/M04 A3013 RMK AO2 T10011042
KRUQ 102305Z AUTO 21003KT 10SM CLR 02/M05 A3012 RMK AO2 T00211051
KRUQ 102245Z AUTO 23003KT 10SM CLR 03/M05 A3013 RMK AO2 T00281048
KRUQ 102225Z AUTO 25003KT 10SM CLR 03/M04 A3014 RMK AO2 T00321045
KRUQ 102205Z AUTO 26003KT 10SM CLR 04/M04 A3013 RMK AO2 T00371043
KRUQ 102145Z AUTO 25003KT 10SM CLR 04/M04 A3013 RMK AO2 T00421040
KRUQ 102125Z AUTO 25003KT 10SM CLR 05/M04 A3013 RMK AO2 T00491041
KRUQ 102105Z AUTO 26004KT 10SM CLR 05/M04 A3013 RMK AO2 T00521041
KRUQ 102045Z AUTO 26005KT 10SM CLR 05/M04 A3012 RMK AO2 T00531044
KRUQ 102025Z AUTO 26005KT 10SM CLR 05/M05 A3012 RMK AO2 T00541048
KRUQ 102005Z AUTO 24006KT 10SM CLR 05/M05 A3013 RMK AO2 T00541049
KRUQ 101945Z AUTO 28006KT 10SM CLR 05/M04 A3013 RMK AO2 T00531044
KRUQ 101925Z AUTO 28003KT 10SM CLR 05/M05 A3013 RMK AO2 T00501048
KRUQ 101905Z AUTO 28005KT 10SM CLR 05/M05 A3014 RMK AO2 T00501046
KRUQ 101845Z AUTO 28006KT 10SM CLR 04/M05 A3014 RMK AO2 T00431055
KRUQ 101825Z AUTO 28004KT 10SM CLR 04/M05 A3015 RMK AO2 T00421053
KRUQ 101805Z AUTO 28005KT 10SM CLR 04/M05 A3016 RMK AO2 T00401051
KRUQ 101745Z AUTO 29006KT 10SM CLR 04/M05 A3017 RMK AO2 T00361052
KRUQ 101725Z AUTO 30006KT 10SM CLR 04/M05 A3018 RMK AO2 T00361050
KRUQ 101705Z AUTO 24004KT 10SM CLR 03/M05 A3019 RMK AO2 T00321052
KRUQ 101645Z AUTO 29006KT 10SM CLR 03/M06 A3020 RMK AO2 P0001 T00261058
KRUQ 101625Z AUTO 27005KT 10SM CLR 02/M06 A3021 RMK AO2 P0001 T00241058
KRUQ 101605Z AUTO 28007KT 10SM CLR 02/M05 A3021 RMK AO2 P0001 T00211054
KRUQ 101545Z AUTO 27005KT 10SM CLR 02/M06 A3022 RMK AO2 P0005 T00161062
KRUQ 101525Z AUTO 29004KT 10SM CLR 02/M05 A3021 RMK AO2 P0003 T00161055
KRUQ 101505Z AUTO 27006KT 10SM CLR 01/M06 A3021 RMK AO2 P0001 T00101059
KRUQ 101445Z AUTO 26003KT 10SM CLR 01/M05 A3021 RMK AO2 P0003 T00071048
KRUQ 101425Z AUTO 25003KT 10SM CLR 00/M05 A3020 RMK AO2 P0001 T00011049
KRUQ 101405Z AUTO 22003KT 10SM CLR 00/M05 A3020 RMK AO2 T10051050
KRUQ 101345Z AUTO 20004KT 10SM CLR M01/M05 A3020 RMK AO2 T10111054
KRUQ 101325Z AUTO 23004KT 10SM CLR M02/M05 A3019 RMK AO2 T10191055
KRUQ 101305Z AUTO 25004KT 10SM CLR M03/M06 A3017 RMK AO2 T10281056
KRUQ 101245Z AUTO 25003KT 10SM CLR M05/M06 A3016 RMK AO2 T10471061
KRUQ 101225Z AUTO 00000KT 10SM CLR M05/M07 A3015 RMK AO2 T10511069
KRUQ 101205Z AUTO 24003KT 10SM CLR M05/M07 A3015 RMK AO2 T10531073
KRUQ 101145Z AUTO 00000KT 10SM CLR M05/M06 A3013 RMK AO2 T10521057
KRUQ 101125Z AUTO 00000KT 10SM CLR M04/M04 A3012 RMK AO2 T10421042
KRUQ 101105Z AUTO 00000KT 10SM CLR M05/M06 A3012 RMK AO2 T10461062
KRUQ 101045Z AUTO 00000KT 10SM CLR M03/M05 A3011 RMK AO2 T10351052
KRUQ 101025Z AUTO 25003KT 10SM CLR M04/M06 A3011 RMK AO2 T10391064
KRUQ 101005Z AUTO 00000KT 10SM SCT050 M02/M06 A3010 RMK AO2 T10241060
KRUQ 100945Z AUTO 24004KT 10SM SCT055 M02/M06 A3009 RMK AO2 T10251060
KRUQ 100925Z AUTO 23003KT 10SM CLR M02/M06 A3008 RMK AO2 T10211060
KRUQ 100905Z AUTO 24003KT 10SM CLR M02/M06 A3007 RMK AO2 T10221060
KRUQ 100845Z AUTO 24004KT 10SM CLR M02/M06 A3005 RMK AO2 T10201061
KRUQ 100825Z AUTO 23003KT 10SM CLR M02/M06 A3005 RMK AO2 T10181063
KRUQ 100805Z AUTO 24004KT 10SM CLR M02/M06 A3005 RMK AO2 T10201058
KRUQ 100745Z AUTO 27003KT 10SM CLR M02/M06 A3005 RMK AO2 T10161061
KRUQ 100725Z AUTO 28004KT 10SM CLR M01/M06 A3004 RMK AO2 T10121061
KRUQ 100705Z AUTO 29004KT 10SM CLR M01/M06 A3003 RMK AO2 T10131057
KRUQ 100645Z AUTO 27003KT 10SM CLR M01/M05 A3002 RMK AO2 T10131053
KRUQ 100625Z AUTO 28004KT 10SM CLR M01/M05 A3001 RMK AO2 T10101050
KRUQ 100605Z AUTO 27005KT 10SM CLR M01/M04 A3001 RMK AO2 T10061045
KRUQ 100545Z AUTO 28006KT 10SM CLR 00/M04 A3001 RMK AO2 T10041042
KRUQ 100525Z AUTO 28008KT 250V310 10SM CLR 00/M04 A3000 RMK AO2 T10021036
KRUQ 100505Z AUTO 28007KT 10SM CLR 00/M03 A2999 RMK AO2 T10011029
KRUQ 100445Z AUTO 27006KT 240V300 10SM CLR 00/M02 A2998 RMK AO2 T00001025
KRUQ 100425Z AUTO 26005KT 10SM CLR 00/M02 A2997 RMK AO2 T10021017
KRUQ 100405Z AUTO 28004KT 10SM CLR 00/00 A2997 RMK AO2 T10051005
KRUQ 100345Z AUTO 00000KT 7SM CLR 00/00 A2995 RMK AO2 T10021002
KRUQ 100325Z AUTO 26003KT 7SM CLR 00/00 A2995 RMK AO2 T10011001
KRUQ 100305Z AUTO 26003KT 7SM CLR 00/00 A2994 RMK AO2 T00000000
KRUQ 100245Z AUTO 24004KT 7SM CLR 00/00 A2993 RMK AO2 T00000000
KRUQ 100225Z AUTO 24003KT 7SM SCT075 SCT100 00/00 A2992 RMK AO2 T00000000
KRUQ 100205Z AUTO 25003KT 7SM SCT085 SCT100 00/00 A2992 RMK AO2 T00030003
KRUQ 100145Z AUTO 25003KT 7SM BKN075 OVC100 01/01 A2992 RMK AO2 T00050005
KRUQ 100125Z AUTO 23003KT 10SM SCT017 SCT075 BKN100 01/01 A2991 RMK AO2 T00050005
KRUQ 100105Z AUTO 25004KT 10SM SCT009 BKN017 OVC100 01/01 A2991 RMK AO2 T00060006
KRUQ 100045Z AUTO 27003KT 10SM OVC011 01/01 A2991 RMK AO2 T00080008
KRUQ 100025Z AUTO 28004KT 10SM SCT006 OVC011 01/01 A2990 RMK AO2 T00070007
KRUQ 100005Z AUTO 00000KT 7SM BKN005 OVC010 01/01 A2990 RMK AO2 T00060006
KRUQ 092345Z AUTO 00000KT 5SM BR SCT006 OVC014 01/01 A2988 RMK AO2 P0001 T00050005
KRUQ 092325Z AUTO 00000KT 7SM SCT005 SCT011 OVC014 01/01 A2988 RMK AO2 T00050005
KRUQ 092305Z AUTO 24003KT 7SM SCT005 OVC011 00/00 A2987 RMK AO2 T00030003
KRUQ 092245Z AUTO 00000KT 4SM BR BKN005 OVC015 00/00 A2985 RMK AO2 T00000000
KRUQ 092225Z AUTO 00000KT 4SM BR SCT007 SCT011 BKN017 00/00 A2984 RMK AO2 T00000000
KRUQ 092205Z AUTO 00000KT 4SM BR SCT011 00/00 A2984 RMK AO2 T00000000
KRUQ 092145Z AUTO 00000KT 10SM SCT027 01/01 A2983 RMK AO2 P0001 T00050005
KRUQ 092125Z AUTO 17003KT 7SM OVC029 01/01 A2984 RMK AO2 P0001 T00060006
KRUQ 092105Z AUTO 21003KT 5SM BR SCT004 OVC033 00/00 A2985 RMK AO2 T00040004
KRUQ 092045Z AUTO 00000KT 4SM BR SCT004 SCT010 OVC035 00/00 A2984 RMK AO2 P0002 T00020002
KRUQ 092025Z AUTO 00000KT 2 1/2SM -SN SCT004 OVC010 00/00 A2984 RMK AO2 P0002 T00020002
KRUQ 092005Z AUTO 00000KT 1 3/4SM -SN BKN004 OVC010 00/00 A2984 RMK AO2 P0001 T00020002
KRUQ 091945Z AUTO 00000KT 4SM -SN SCT004 BKN008 OVC027 00/00 A2983 RMK AO2 P0002 T00010001
KRUQ 091925Z AUTO 00000KT 2SM -SN BKN004 OVC008 00/00 A2983 RMK AO2 P0001 T00010001
KRUQ 091905Z AUTO 00000KT 1 1/4SM -SN OVC006 00/00 A2983 RMK AO2 T00020002
KRUQ 091845Z AUTO 00000KT 1SM -SN OVC006 00/00 A2982 RMK AO2 P0003 T00010001
KRUQ 091825Z AUTO 00000KT 1 3/4SM UP BKN003 OVC008 00/00 A2982 RMK AO2 P0001 T00010001
KRUQ 091805Z AUTO 00000KT 1 1/4SM UP OVC007 00/00 A2982 RMK AO2 T00010000
KRUQ 091745Z AUTO 32003KT 3SM -SN OVC007 00/00 A2982 RMK AO2 P0003 T00020000
KRUQ 091725Z AUTO 36003KT 5SM -SN BKN007 BKN013 BKN020 00/00 A2982 RMK AO2 P0002 T00011001
KRUQ 091705Z AUTO 00000KT 3SM UP OVC007 00/00 A2983 RMK AO2 T00001002
KRUQ 091645Z AUTO 00000KT 5SM UP BKN007 BKN012 OVC024 00/00 A2984 RMK AO2 P0003 T00001002
KRUQ 091625Z AUTO 00000KT 7SM SCT009 SCT015 BKN023 00/00 A2985 RMK AO2 P0002 T00001002
KRUQ 091605Z AUTO 01004KT 4SM -SN SCT007 BKN011 BKN016 00/00 A2986 RMK AO2 T00001002
KRUQ 091545Z AUTO 02004KT 3SM -RA SCT007 OVC010 00/00 A2987 RMK AO2 P0002 T00001003
KRUQ 091525Z AUTO 01005KT 4SM -SN SCT006 BKN010 OVC031 00/00 A2987 RMK AO2 T00001004
KRUQ 091505Z AUTO 01005KT 10SM BKN008 BKN032 OVC040 00/00 A2988 RMK AO2 T00001005
KRUQ 091445Z AUTO 02003KT 10SM BKN008 OVC050 00/00 A2988 RMK AO2 T00001004
KRUQ 091425Z AUTO 02004KT 10SM BKN008 OVC050 00/00 A2988 RMK AO2 T10011004
KRUQ 091405Z AUTO 36005KT 7SM BKN008 BKN020 OVC049 00/00 A2987 RMK AO2 T10021003
KRUQ 091345Z AUTO 36006KT 7SM BKN008 BKN024 OVC039 00/00 A2987 RMK AO2 T10021002
KRUQ 091325Z AUTO 35003KT 4SM UP SCT004 BKN008 OVC031 00/00 A2989 RMK AO2 T10031003
KRUQ 091305Z AUTO 34004KT 4SM BR SCT004 BKN008 OVC039 00/00 A2989 RMK AO2 T10051005
KRUQ 091245Z AUTO 36004KT 4SM UP SCT006 BKN039 00/00 A2987 RMK AO2 T10051005
KRUQ 091225Z AUTO 01004KT 4SM UP CLR 00/00 A2988 RMK AO2 T10051005